CST,Max TemperatureF,Mean TemperatureF,Min TemperatureF,Max Dew PointF,MeanDew PointF,Min DewpointF,Max Humidity, Mean Humidity, Min Humidity, Max Sea Level PressureIn, Mean Sea Level PressureIn, Min Sea Level PressureIn, Max VisibilityMiles, Mean VisibilityMiles, Min VisibilityMiles, Max Wind SpeedMPH, Mean Wind SpeedMPH, Max Gust SpeedMPH,PrecipitationIn, CloudCover, Events, WindDirDegrees
2011-11-1,68,51,34,46,38,31,82,62,42,30.09,29.99,29.91,10,10,9,18,13,23,0.00,1,,178
2011-11-2,57,46,35,45,40,35,100,78,55,30.12,30.04,29.94,10,6,2,25,13,35,1.27,8,Rain,23
2011-11-3,50,41,32,39,34,26,100,73,46,30.27,30.14,30.01,10,10,8,25,14,35,0.01,4,Rain,27
2011-11-4,52,38,24,37,30,24,92,67,41,30.37,30.29,30.22,10,10,10,15,6,20,0.00,0,,104
2011-11-5,54,45,35,43,38,30,92,79,66,30.22,30.08,29.94,10,8,6,24,17,30,0.00,0,,159
2011-11-6,61,50,38,48,43,33,86,72,57,30.10,29.92,29.85,10,8,5,29,15,36,0.00,3,,204
2011-11-7,59,44,28,37,31,27,92,64,36,30.25,30.20,30.13,10,9,7,9,3,14,0.00,1,,37
2011-11-8,47,43,38,40,39,35,100,75,49,30.17,30.04,29.91,10,5,2,23,15,32,0.82,8,Rain-Snow,41
2011-11-9,40,36,31,40,35,25,100,85,70,30.04,29.87,29.71,10,5,1,32,18,41,1.42,6,Rain-Snow,343
2011-11-10,39,33,27,30,27,24,85,75,64,30.09,30.04,29.97,10,10,6,22,12,25,T,6,Snow,281
2011-11-11,45,35,24,30,27,22,92,71,49,30.06,29.86,29.73,10,10,10,20,9,24,0.00,1,,192
2011-11-12,55,42,29,39,34,27,100,75,50,29.74,29.63,29.44,10,10,9,23,14,30,0.00,0,,189
2011-11-13,60,49,38,51,40,33,93,72,51,29.63,29.41,29.24,10,10,9,29,16,38,0.00,0,,221
2011-11-14,55,45,34,37,33,25,96,73,50,29.73,29.63,29.55,10,10,10,20,8,23,0.00,3,,230
2011-11-15,57,43,29,35,29,19,85,64,43,29.98,29.77,29.69,10,10,9,21,11,28,0.00,1,,251
2011-11-16,40,32,23,20,15,10,74,53,32,30.19,30.12,29.97,10,10,10,22,11,28,0.00,0,,294
2011-11-17,35,27,19,17,14,11,73,56,38,30.26,30.19,30.09,10,10,10,23,11,31,0.00,0,,258
2011-11-18,52,40,28,28,23,18,69,52,35,30.07,29.88,29.77,10,10,10,32,17,43,0.00,1,,196
2011-11-19,52,44,35,43,34,24,86,68,49,29.97,29.75,29.61,10,10,9,23,14,29,0.00,8,,211
2011-11-20,39,34,28,31,28,25,92,78,64,30.34,30.25,30.05,10,10,8,23,8,28,0.00,5,,21
2011-11-21,45,35,25,32,29,24,92,77,62,30.35,30.27,30.20,10,8,5,12,7,15,0.00,1,,59
2011-11-22,40,35,29,36,34,28,100,90,79,30.20,30.06,29.96,7,4,2,17,9,22,0.00,7,,28
2011-11-23,47,36,24,37,33,22,100,83,65,30.24,30.20,30.12,8,5,2,17,7,21,0.00,4,,229
2011-11-24,53,46,38,44,41,37,100,83,66,30.19,30.09,29.93,10,3,0,24,16,29,0.00,4,Fog,198
2011-11-25,51,47,42,43,41,39,89,80,71,29.91,29.84,29.78,10,9,7,24,16,31,0.00,5,,198
2011-11-26,52,45,37,52,45,34,100,86,71,29.92,29.81,29.75,10,6,2,23,14,32,0.33,8,Rain,246
2011-11-27,37,34,30,34,28,23,92,81,69,30.21,30.06,29.90,10,10,10,25,14,31,0.00,8,,353
2011-11-28,33,29,25,26,24,23,92,81,69,30.21,30.15,30.06,10,10,8,17,6,21,0.00,5,,355
2011-11-29,40,33,25,27,20,15,85,63,40,30.15,30.11,30.00,10,10,10,28,16,33,0.00,0,,4
2011-11-30,43,29,15,21,15,6,84,53,22,30.14,30.09,30.05,10,10,10,15,9,18,0.00,0,,213